Time;durP1;ratioP1;P1;durP2;ratioP2;P2;SDS_P1;SDS_P2;PMS_P1;PMS_P2;Temp;Humidity;BMP_temperature;BMP_pressure;BME280_temperature;BME280_humidity;BME280_pressure;Samples;Min_cycle;Max_cycle;Signal;HPM_P1;HPM_P2
2023/05/18 00:00:25;;;;;;;3.08;1.55;;;;;;;;;;5038785;28;20238;-82
2023/05/18 00:02:56;;;;;;;1.80;1.20;;;;;;;;;;5039491;28;20198;-83
2023/05/18 00:05:24;;;;;;;1.85;1.42;;;;;;;;;;5040832;28;20257;-82
2023/05/18 00:07:52;;;;;;;2.92;1.50;;;;;;;;;;5039834;28;20260;-82
2023/05/18 00:10:19;;;;;;;1.95;1.63;;;;;;;;;;5039977;28;20305;-83
2023/05/18 00:12:47;;;;;;;2.22;1.17;;;;;;;;;;5039388;28;20222;-82
2023/05/18 00:15:14;;;;;;;5.63;1.50;;;;;;;;;;5039158;28;20209;-82
2023/05/18 00:17:42;;;;;;;3.88;1.45;;;;;;;;;;5037918;28;20202;-83
2023/05/18 00:20:12;;;;;;;4.30;1.73;;;;;;;;;;5028454;28;20215;-83
2023/05/18 00:22:41;;;;;;;1.83;1.30;;;;;;;;;;5018497;28;20274;-84
2023/05/18 00:25:09;;;;;;;2.28;1.30;;;;;;;;;;5019219;28;20223;-84
2023/05/18 00:27:36;;;;;;;1.95;1.35;;;;;;;;;;5019106;28;20237;-84
2023/05/18 00:30:05;;;;;;;2.90;1.80;;;;;;;;;;5020163;28;20606;-84
2023/05/18 00:32:32;;;;;;;2.70;1.70;;;;;;;;;;5018799;28;20592;-83
2023/05/18 00:35:00;;;;;;;2.67;1.30;;;;;;;;;;5019604;28;20734;-84
2023/05/18 00:37:28;;;;;;;2.20;1.40;;;;;;;;;;5018586;28;20526;-82
2023/05/18 00:39:56;;;;;;;1.77;1.33;;;;;;;;;;5019185;28;20286;-84
2023/05/18 00:42:23;;;;;;;4.40;1.67;;;;;;;;;;5019479;28;20198;-83
2023/05/18 00:44:51;;;;;;;4.72;1.83;;;;;;;;;;5018461;28;20334;-83
2023/05/18 00:47:20;;;;;;;3.20;1.45;;;;;;;;;;5018156;28;20203;-82
2023/05/18 00:49:47;;;;;;;2.72;1.83;;;;;;;;;;5019965;28;20825;-83
2023/05/18 00:52:16;;;;;;;4.97;1.80;;;;;;;;;;5018727;28;20735;-82
2023/05/18 00:54:45;;;;;;;1.65;1.30;;;;;;;;;;5019064;28;20314;-84
2023/05/18 00:57:13;;;;;;;2.40;1.58;;;;;;;;;;5018860;28;20199;-84
2023/05/18 00:59:41;;;;;;;1.55;1.27;;;;;;;;;;5018808;28;20210;-83
2023/05/18 01:02:10;;;;;;;1.50;1.40;;;;;;;;;;5018874;28;20203;-81
2023/05/18 01:04:40;;;;;;;1.88;1.35;;;;;;;;;;5018127;28;20230;-82
2023/05/18 01:07:07;;;;;;;1.52;1.27;;;;;;;;;;5019031;28;20210;-83
2023/05/18 01:09:35;;;;;;;3.42;1.80;;;;;;;;;;5018697;28;20214;-82
2023/05/18 01:12:12;;;;;;;2.50;1.80;;;;;;;;;;5018793;28;20239;-82
2023/05/18 01:14:45;;;;;;;2.50;1.55;;;;;;;;;;5019738;28;20217;-82
2023/05/18 01:17:23;;;;;;;1.85;1.50;;;;;;;;;;5018150;28;20207;-82
2023/05/18 01:20:26;;;;;;;2.30;1.40;;;;;;;;;;5025620;28;20313;-84
2023/05/18 01:23:12;;;;;;;2.38;1.30;;;;;;;;;;5037466;28;20269;-83
2023/05/18 01:25:50;;;;;;;2.08;1.60;;;;;;;;;;5039205;28;20695;-83
2023/05/18 01:28:25;;;;;;;5.63;1.95;;;;;;;;;;5037384;28;20183;-82
2023/05/18 01:30:53;;;;;;;3.78;1.98;;;;;;;;;;5037612;28;20683;-82
2023/05/18 01:33:23;;;;;;;1.70;1.27;;;;;;;;;;5036501;28;20313;-82
2023/05/18 01:35:50;;;;;;;5.97;1.60;;;;;;;;;;5037124;28;20297;-82
2023/05/18 01:38:19;;;;;;;3.67;1.85;;;;;;;;;;5036327;28;20228;-83
2023/05/18 01:40:54;;;;;;;5.22;1.55;;;;;;;;;;5037560;28;20233;-82
2023/05/18 01:43:28;;;;;;;2.90;1.40;;;;;;;;;;5036956;28;20182;-83
2023/05/18 01:45:58;;;;;;;1.45;1.35;;;;;;;;;;5041339;28;20179;-83
2023/05/18 01:48:26;;;;;;;3.80;1.58;;;;;;;;;;5040682;28;20206;-83
2023/05/18 01:50:58;;;;;;;6.07;1.50;;;;;;;;;;5040773;28;20265;-82
2023/05/18 01:53:28;;;;;;;3.50;1.52;;;;;;;;;;5041054;28;20191;-84
2023/05/18 01:55:56;;;;;;;2.78;1.63;;;;;;;;;;5041858;28;20266;-84
2023/05/18 01:58:25;;;;;;;2.10;1.30;;;;;;;;;;5041628;28;20233;-83
2023/05/18 02:00:52;;;;;;;1.60;1.48;;;;;;;;;;5041345;28;20209;-84
2023/05/18 02:03:20;;;;;;;4.50;1.50;;;;;;;;;;5043030;28;20262;-83
2023/05/18 02:05:47;;;;;;;3.03;1.80;;;;;;;;;;5043926;28;20266;-84
2023/05/18 02:08:15;;;;;;;2.53;1.73;;;;;;;;;;5043458;28;20642;-84
2023/05/18 02:10:42;;;;;;;2.63;1.50;;;;;;;;;;5045151;28;20750;-85
2023/05/18 02:13:10;;;;;;;4.68;1.65;;;;;;;;;;5043549;28;20257;-84
2023/05/18 02:15:38;;;;;;;1.67;1.20;;;;;;;;;;5044515;28;20245;-84
2023/05/18 02:18:07;;;;;;;2.45;1.60;;;;;;;;;;5044591;28;20292;-84
2023/05/18 02:20:36;;;;;;;1.58;1.20;;;;;;;;;;5030314;28;20210;-84
2023/05/18 02:23:03;;;;;;;1.58;1.25;;;;;;;;;;5024628;28;20298;-85
2023/05/18 02:25:31;;;;;;;2.42;1.63;;;;;;;;;;5024342;28;20294;-84
2023/05/18 02:27:59;;;;;;;3.35;1.25;;;;;;;;;;5021611;28;20211;-83
2023/05/18 02:30:31;;;;;;;3.83;1.60;;;;;;;;;;5014258;28;20203;-80
2023/05/18 02:33:00;;;;;;;4.63;2.17;;;;;;;;;;5014456;28;20286;-82
2023/05/18 02:35:28;;;;;;;3.67;1.60;;;;;;;;;;5014698;28;20229;-82
2023/05/18 02:37:57;;;;;;;2.63;1.52;;;;;;;;;;5014439;28;20329;-80
2023/05/18 02:40:24;;;;;;;1.80;1.20;;;;;;;;;;5013697;28;20210;-82
2023/05/18 02:42:52;;;;;;;4.80;1.63;;;;;;;;;;5014496;28;20210;-82
2023/05/18 02:45:20;;;;;;;2.30;1.67;;;;;;;;;;5014240;28;20656;-82
2023/05/18 02:47:48;;;;;;;2.70;1.65;;;;;;;;;;5014718;28;20266;-82
2023/05/18 02:50:16;;;;;;;3.45;1.67;;;;;;;;;;5024584;28;20210;-80
2023/05/18 02:52:44;;;;;;;3.78;1.73;;;;;;;;;;5033926;28;20689;-83
2023/05/18 02:55:13;;;;;;;1.73;1.63;;;;;;;;;;5033639;28;20230;-79
2023/05/18 02:57:45;;;;;;;2.38;1.50;;;;;;;;;;5033683;28;20286;-80
2023/05/18 03:00:15;;;;;;;2.55;1.52;;;;;;;;;;5033093;28;20213;-83
2023/05/18 03:02:47;;;;;;;2.33;1.40;;;;;;;;;;5033641;28;20628;-83
2023/05/18 03:05:17;;;;;;;2.13;1.65;;;;;;;;;;5033678;28;20683;-83
2023/05/18 03:07:49;;;;;;;2.88;1.33;;;;;;;;;;5033301;28;20202;-83
2023/05/18 03:10:17;;;;;;;3.78;1.58;;;;;;;;;;5034059;28;20187;-80
2023/05/18 03:12:44;;;;;;;1.92;1.75;;;;;;;;;;5032545;28;20202;-81
2023/05/18 03:15:14;;;;;;;4.43;1.80;;;;;;;;;;5032314;28;20597;-81
2023/05/18 03:17:42;;;;;;;1.98;1.27;;;;;;;;;;5033269;28;20205;-81
2023/05/18 03:20:13;;;;;;;2.45;1.60;;;;;;;;;;5023131;28;20211;-82
2023/05/18 03:22:42;;;;;;;1.40;1.30;;;;;;;;;;5013919;28;20298;-83
2023/05/18 03:25:09;;;;;;;2.50;1.50;;;;;;;;;;5013802;28;20219;-82
2023/05/18 03:27:37;;;;;;;2.38;1.55;;;;;;;;;;5013350;28;20235;-81
2023/05/18 03:30:06;;;;;;;5.43;2.05;;;;;;;;;;5013727;28;20206;-82
2023/05/18 03:32:35;;;;;;;3.80;1.70;;;;;;;;;;5014260;28;20203;-82
2023/05/18 03:35:03;;;;;;;3.38;1.20;;;;;;;;;;5013951;28;20237;-81
2023/05/18 03:37:31;;;;;;;2.70;1.65;;;;;;;;;;5013634;28;20202;-82
2023/05/18 03:40:11;;;;;;;1.83;1.50;;;;;;;;;;5012925;28;20629;-82
2023/05/18 03:42:39;;;;;;;2.40;1.60;;;;;;;;;;5013635;28;20203;-83
2023/05/18 03:45:08;;;;;;;2.92;1.80;;;;;;;;;;5013469;28;20215;-82
2023/05/18 03:47:36;;;;;;;2.15;1.90;;;;;;;;;;5013163;28;20290;-83
2023/05/18 03:50:05;;;;;;;2.03;1.83;;;;;;;;;;5021670;28;20575;-82
2023/05/18 03:52:32;;;;;;;2.35;1.60;;;;;;;;;;5033687;28;20198;-80
2023/05/18 03:55:02;;;;;;;4.30;1.60;;;;;;;;;;5036699;28;20230;-80
2023/05/18 03:57:31;;;;;;;2.50;2.05;;;;;;;;;;5036500;28;20198;-80
2023/05/18 03:59:59;;;;;;;2.33;1.63;;;;;;;;;;5036762;28;20199;-81
2023/05/18 04:02:27;;;;;;;6.72;2.65;;;;;;;;;;5037238;28;20238;-79
2023/05/18 04:04:56;;;;;;;3.13;2.00;;;;;;;;;;5036430;28;20304;-80
2023/05/18 04:07:24;;;;;;;3.97;1.90;;;;;;;;;;5036108;28;20234;-83
2023/05/18 04:09:52;;;;;;;2.85;1.50;;;;;;;;;;5036769;28;20234;-82
2023/05/18 04:12:20;;;;;;;2.67;2.00;;;;;;;;;;5036762;28;20205;-82
2023/05/18 04:14:48;;;;;;;3.63;1.85;;;;;;;;;;5036402;28;20253;-82
2023/05/18 04:17:17;;;;;;;4.53;2.15;;;;;;;;;;5036663;28;20694;-81
2023/05/18 04:19:44;;;;;;;4.38;1.92;;;;;;;;;;5029615;28;20684;-82
2023/05/18 04:22:12;;;;;;;4.93;2.05;;;;;;;;;;5016379;28;20211;-83
2023/05/18 04:24:40;;;;;;;2.78;1.52;;;;;;;;;;5014697;28;20265;-82
2023/05/18 04:27:08;;;;;;;3.00;1.48;;;;;;;;;;5016738;28;20210;-80
2023/05/18 04:29:38;;;;;;;1.80;1.52;;;;;;;;;;5016435;28;20631;-82
2023/05/18 04:32:06;;;;;;;4.07;1.58;;;;;;;;;;5017631;28;20215;-80
2023/05/18 04:34:36;;;;;;;3.47;1.80;;;;;;;;;;5016416;28;20231;-81
2023/05/18 04:37:04;;;;;;;3.22;1.80;;;;;;;;;;5017012;28;20265;-80
2023/05/18 04:39:33;;;;;;;4.88;2.50;;;;;;;;;;5016635;28;20274;-80
2023/05/18 04:42:03;;;;;;;7.47;2.40;;;;;;;;;;5016511;28;20199;-80
2023/05/18 04:44:32;;;;;;;5.97;2.65;;;;;;;;;;5016842;28;20327;-80
2023/05/18 04:47:01;;;;;;;6.88;2.35;;;;;;;;;;5016235;28;20203;-80
2023/05/18 04:49:30;;;;;;;4.40;2.22;;;;;;;;;;5014808;28;20213;-83
2023/05/18 04:51:58;;;;;;;2.20;1.70;;;;;;;;;;5015702;28;20558;-82
2023/05/18 04:54:29;;;;;;;6.10;2.00;;;;;;;;;;5016527;28;20223;-80
2023/05/18 04:56:57;;;;;;;4.93;2.00;;;;;;;;;;5016181;28;20187;-81
2023/05/18 04:59:27;;;;;;;2.38;1.75;;;;;;;;;;5015247;28;20205;-81
2023/05/18 05:01:55;;;;;;;2.85;1.73;;;;;;;;;;5015220;28;20238;-79
2023/05/18 05:04:24;;;;;;;5.10;2.15;;;;;;;;;;5014529;28;20799;-79
2023/05/18 05:06:52;;;;;;;2.00;1.55;;;;;;;;;;5014556;28;20589;-82
2023/05/18 05:09:19;;;;;;;3.30;2.20;;;;;;;;;;5015029;28;20289;-82
2023/05/18 05:11:47;;;;;;;5.93;2.08;;;;;;;;;;5015052;28;20211;-81
2023/05/18 05:14:15;;;;;;;3.20;1.95;;;;;;;;;;5015134;28;20326;-81
2023/05/18 05:16:43;;;;;;;4.75;2.65;;;;;;;;;;5015865;28;20414;-81
2023/05/18 05:19:11;;;;;;;2.95;1.90;;;;;;;;;;5016823;28;20215;-81
2023/05/18 05:21:40;;;;;;;3.47;2.28;;;;;;;;;;5035199;28;20289;-82
2023/05/18 05:24:08;;;;;;;5.88;2.00;;;;;;;;;;5034974;28;20337;-82
2023/05/18 05:26:35;;;;;;;2.00;1.75;;;;;;;;;;5035196;28;20266;-82
2023/05/18 05:29:03;;;;;;;4.20;1.85;;;;;;;;;;5034773;28;20290;-81
2023/05/18 05:31:30;;;;;;;4.15;1.95;;;;;;;;;;5035925;28;20221;-81
2023/05/18 05:33:58;;;;;;;3.75;2.20;;;;;;;;;;5035417;28;20256;-80
2023/05/18 05:36:25;;;;;;;5.50;2.33;;;;;;;;;;5035040;28;20308;-79
2023/05/18 05:38:58;;;;;;;3.78;2.38;;;;;;;;;;5035140;28;20241;-81
2023/05/18 05:41:25;;;;;;;2.50;1.98;;;;;;;;;;5035161;28;20705;-81
2023/05/18 05:43:53;;;;;;;3.08;2.78;;;;;;;;;;5034347;28;20222;-80
2023/05/18 05:46:22;;;;;;;7.40;2.47;;;;;;;;;;5035463;28;20623;-81
2023/05/18 05:48:50;;;;;;;3.97;2.05;;;;;;;;;;5035123;28;20206;-80
2023/05/18 05:51:17;;;;;;;2.83;2.47;;;;;;;;;;5015427;28;20217;-82
2023/05/18 05:53:46;;;;;;;4.93;1.95;;;;;;;;;;5015623;28;20219;-82
2023/05/18 05:56:15;;;;;;;3.47;1.80;;;;;;;;;;5014413;28;20229;-79
2023/05/18 05:58:43;;;;;;;3.85;2.00;;;;;;;;;;5013763;28;20213;-80
2023/05/18 06:01:10;;;;;;;3.25;2.30;;;;;;;;;;5014134;28;20214;-82
2023/05/18 06:03:38;;;;;;;4.15;2.95;;;;;;;;;;5014848;28;20272;-82
2023/05/18 06:06:06;;;;;;;3.72;1.98;;;;;;;;;;5014995;28;20225;-81
2023/05/18 06:08:34;;;;;;;3.60;2.22;;;;;;;;;;5014464;28;20231;-81
2023/05/18 06:11:01;;;;;;;4.43;2.28;;;;;;;;;;5014563;28;20246;-83
2023/05/18 06:13:30;;;;;;;6.68;2.33;;;;;;;;;;5014166;28;20215;-82
2023/05/18 06:15:58;;;;;;;3.55;2.40;;;;;;;;;;5013120;28;20218;-80
2023/05/18 06:18:26;;;;;;;4.07;1.80;;;;;;;;;;5014560;28;20243;-81
2023/05/18 06:20:53;;;;;;;3.50;1.80;;;;;;;;;;5031351;28;20274;-80
2023/05/18 06:23:22;;;;;;;3.05;2.05;;;;;;;;;;5034089;28;20203;-82
2023/05/18 06:25:50;;;;;;;2.67;2.30;;;;;;;;;;5033850;28;20198;-82
2023/05/18 06:28:17;;;;;;;3.30;2.10;;;;;;;;;;5034416;28;20273;-82
2023/05/18 06:30:46;;;;;;;4.95;2.47;;;;;;;;;;5034950;28;20285;-80
2023/05/18 06:33:13;;;;;;;3.03;1.95;;;;;;;;;;5035863;28;20234;-82
2023/05/18 06:35:41;;;;;;;4.20;2.00;;;;;;;;;;5035446;28;20232;-82
2023/05/18 06:38:09;;;;;;;5.22;1.80;;;;;;;;;;5035042;28;20213;-82
2023/05/18 06:40:36;;;;;;;2.03;1.60;;;;;;;;;;5035416;28;20742;-82
2023/05/18 06:43:04;;;;;;;1.83;1.40;;;;;;;;;;5035351;28;20289;-82
2023/05/18 06:45:31;;;;;;;4.55;1.80;;;;;;;;;;5034464;28;20695;-82
2023/05/18 06:48:00;;;;;;;6.75;2.40;;;;;;;;;;5033922;28;20289;-80
2023/05/18 06:50:28;;;;;;;1.73;1.63;;;;;;;;;;5020299;28;20297;-80
2023/05/18 06:52:55;;;;;;;4.05;1.92;;;;;;;;;;5013317;28;20295;-82
2023/05/18 06:55:23;;;;;;;2.55;1.70;;;;;;;;;;5013980;28;20223;-81
2023/05/18 06:57:51;;;;;;;4.75;2.17;;;;;;;;;;5014379;28;20232;-82
2023/05/18 07:00:20;;;;;;;2.30;1.75;;;;;;;;;;5014931;28;20353;-81
2023/05/18 07:02:48;;;;;;;4.03;2.22;;;;;;;;;;5014740;28;20209;-82
2023/05/18 07:05:17;;;;;;;6.95;3.05;;;;;;;;;;5013838;28;20330;-80
2023/05/18 07:07:44;;;;;;;2.83;1.95;;;;;;;;;;5014643;28;20210;-81
2023/05/18 07:10:12;;;;;;;3.72;2.40;;;;;;;;;;5013142;28;20210;-80
2023/05/18 07:12:39;;;;;;;5.90;2.70;;;;;;;;;;5013001;28;20712;-81
2023/05/18 07:15:10;;;;;;;5.60;2.05;;;;;;;;;;5012788;28;20227;-82
2023/05/18 07:17:38;;;;;;;2.53;1.92;;;;;;;;;;5012808;28;20214;-79
2023/05/18 07:20:07;;;;;;;4.30;2.65;;;;;;;;;;5022037;28;20194;-80
2023/05/18 07:22:36;;;;;;;3.83;2.15;;;;;;;;;;5032515;28;20293;-80
2023/05/18 07:25:04;;;;;;;3.15;2.08;;;;;;;;;;5031514;28;20214;-79
2023/05/18 07:27:33;;;;;;;3.10;2.53;;;;;;;;;;5034176;28;20203;-81
2023/05/18 07:30:00;;;;;;;2.78;1.58;;;;;;;;;;5035433;28;20248;-80
2023/05/18 07:32:28;;;;;;;2.75;1.60;;;;;;;;;;5035310;28;20218;-81
2023/05/18 07:34:55;;;;;;;3.80;1.92;;;;;;;;;;5035339;28;20820;-82
2023/05/18 07:37:23;;;;;;;3.40;1.65;;;;;;;;;;5035609;28;20305;-81
2023/05/18 07:39:51;;;;;;;1.73;1.50;;;;;;;;;;5035289;28;20230;-79
2023/05/18 07:42:19;;;;;;;2.75;1.73;;;;;;;;;;5035704;28;20211;-80
2023/05/18 07:44:46;;;;;;;3.55;1.45;;;;;;;;;;5035823;28;20714;-81
2023/05/18 07:47:14;;;;;;;3.92;2.22;;;;;;;;;;5058840;22;20251;-81
2023/05/18 07:49:42;;;;;;;3.50;2.08;;;;;;;;;;5061027;28;20308;-81
2023/05/18 07:52:10;;;;;;;3.08;1.90;;;;;;;;;;5074825;28;20200;-80
2023/05/18 07:54:37;;;;;;;4.72;2.20;;;;;;;;;;5075533;28;20291;-80
2023/05/18 07:57:06;;;;;;;5.93;1.90;;;;;;;;;;5095952;22;20268;-79
2023/05/18 07:59:34;;;;;;;1.58;1.48;;;;;;;;;;5055541;28;20753;-80
2023/05/18 08:02:01;;;;;;;3.28;1.42;;;;;;;;;;5056034;28;20737;-78
2023/05/18 08:04:29;;;;;;;3.15;1.73;;;;;;;;;;5055326;28;20254;-79
2023/05/18 08:06:59;;;;;;;4.07;2.63;;;;;;;;;;5055311;28;20208;-79
2023/05/18 08:09:26;;;;;;;3.33;1.52;;;;;;;;;;5055091;28;20706;-79
2023/05/18 08:11:54;;;;;;;3.22;1.80;;;;;;;;;;5055945;28;20212;-79
2023/05/18 08:14:23;;;;;;;3.50;1.55;;;;;;;;;;5055629;28;20209;-79
2023/05/18 08:16:50;;;;;;;2.40;1.40;;;;;;;;;;5055319;28;20702;-79
2023/05/18 08:19:18;;;;;;;2.08;1.30;;;;;;;;;;5055190;28;20301;-78
2023/05/18 08:21:45;;;;;;;1.27;1.15;;;;;;;;;;5055606;28;20783;-78
2023/05/18 08:24:13;;;;;;;2.30;1.65;;;;;;;;;;5055854;28;20292;-78
2023/05/18 08:26:40;;;;;;;3.33;2.03;;;;;;;;;;5055606;28;20200;-81
2023/05/18 08:29:09;;;;;;;2.13;1.65;;;;;;;;;;5055489;28;20208;-80
2023/05/18 08:31:39;;;;;;;2.00;1.40;;;;;;;;;;5055708;28;20319;-79
2023/05/18 08:34:07;;;;;;;2.85;1.60;;;;;;;;;;5055270;28;20204;-79
2023/05/18 08:36:36;;;;;;;3.25;1.70;;;;;;;;;;5055181;28;20205;-80
2023/05/18 08:39:04;;;;;;;2.35;1.55;;;;;;;;;;5055676;28;20225;-79
2023/05/18 08:41:35;;;;;;;2.17;1.05;;;;;;;;;;5055524;28;20244;-79
2023/05/18 08:44:05;;;;;;;1.90;1.27;;;;;;;;;;5055857;28;20206;-80
2023/05/18 08:46:38;;;;;;;4.43;1.73;;;;;;;;;;5055138;28;20201;-79
2023/05/18 08:49:06;;;;;;;2.13;1.48;;;;;;;;;;5055378;28;20285;-80
2023/05/18 08:51:36;;;;;;;3.15;2.20;;;;;;;;;;5055784;28;20681;-80
2023/05/18 08:54:05;;;;;;;3.58;1.58;;;;;;;;;;5056385;28;20211;-80
2023/05/18 08:56:34;;;;;;;1.17;1.02;;;;;;;;;;5055726;28;20662;-80
2023/05/18 08:59:06;;;;;;;2.45;1.30;;;;;;;;;;5055673;28;20709;-80
2023/05/18 09:01:34;;;;;;;1.85;1.20;;;;;;;;;;5056629;28;20214;-80
2023/05/18 09:04:04;;;;;;;1.98;1.58;;;;;;;;;;5055344;28;20205;-79
2023/05/18 09:06:34;;;;;;;2.63;1.27;;;;;;;;;;5054469;28;20712;-80
2023/05/18 09:09:03;;;;;;;1.10;1.00;;;;;;;;;;5072775;28;20255;-80
2023/05/18 09:11:33;;;;;;;4.03;2.13;;;;;;;;;;5072195;28;20186;-80
2023/05/18 09:14:01;;;;;;;1.42;1.23;;;;;;;;;;5071260;28;20661;-79
2023/05/18 09:16:31;;;;;;;1.85;1.38;;;;;;;;;;5075551;28;20197;-79
2023/05/18 09:18:59;;;;;;;3.25;1.42;;;;;;;;;;5076997;28;20240;-80
2023/05/18 09:21:28;;;;;;;3.58;1.85;;;;;;;;;;5073329;28;20189;-80
2023/05/18 09:23:55;;;;;;;2.92;1.40;;;;;;;;;;5062108;28;20266;-80
2023/05/18 09:26:23;;;;;;;2.72;1.42;;;;;;;;;;5059539;28;20271;-80
2023/05/18 09:28:53;;;;;;;2.85;1.23;;;;;;;;;;5060490;28;20361;-81
2023/05/18 09:31:23;;;;;;;1.67;1.30;;;;;;;;;;5060118;28;20261;-83
2023/05/18 09:33:51;;;;;;;2.55;1.40;;;;;;;;;;5057876;28;20200;-83
2023/05/18 09:36:25;;;;;;;5.80;2.20;;;;;;;;;;5057742;28;20654;-82
2023/05/18 09:38:54;;;;;;;4.22;1.55;;;;;;;;;;5055920;28;20713;-80
2023/05/18 09:41:21;;;;;;;2.75;1.92;;;;;;;;;;5056483;28;20288;-80
2023/05/18 09:43:51;;;;;;;2.25;1.38;;;;;;;;;;5055196;28;20705;-80
2023/05/18 09:46:20;;;;;;;4.25;1.42;;;;;;;;;;5054712;28;20198;-80
2023/05/18 09:48:53;;;;;;;2.97;1.60;;;;;;;;;;5053909;28;20213;-79
2023/05/18 09:51:24;;;;;;;3.15;1.65;;;;;;;;;;5054689;28;20567;-80
2023/05/18 09:53:56;;;;;;;4.03;1.80;;;;;;;;;;5055586;28;20197;-81
2023/05/18 09:56:24;;;;;;;2.90;1.67;;;;;;;;;;5055117;28;20202;-80
2023/05/18 09:58:52;;;;;;;2.38;1.85;;;;;;;;;;5055543;28;20742;-81
2023/05/18 10:01:19;;;;;;;2.00;1.58;;;;;;;;;;5054156;28;20197;-78
2023/05/18 10:03:48;;;;;;;1.98;1.20;;;;;;;;;;5054628;28;20206;-81
2023/05/18 10:06:18;;;;;;;2.58;1.50;;;;;;;;;;5054071;28;20300;-80
2023/05/18 10:08:46;;;;;;;3.70;1.23;;;;;;;;;;5053365;28;20229;-79
2023/05/18 10:11:20;;;;;;;3.15;1.40;;;;;;;;;;5053623;28;20212;-80
2023/05/18 10:13:48;;;;;;;4.47;2.00;;;;;;;;;;5052975;28;20212;-78
2023/05/18 10:16:16;;;;;;;3.90;1.50;;;;;;;;;;5053351;28;20305;-78
2023/05/18 10:18:43;;;;;;;2.65;1.40;;;;;;;;;;5052039;28;20627;-78
2023/05/18 10:21:13;;;;;;;3.78;1.80;;;;;;;;;;5052339;28;20228;-79
2023/05/18 10:23:41;;;;;;;1.77;1.50;;;;;;;;;;5053052;28;20204;-77
2023/05/18 10:26:09;;;;;;;2.17;1.30;;;;;;;;;;5053009;28;20689;-81
2023/05/18 10:28:41;;;;;;;1.63;1.48;;;;;;;;;;5052815;28;20221;-79
2023/05/18 10:31:09;;;;;;;2.13;1.88;;;;;;;;;;5052798;28;20293;-79
2023/05/18 10:33:38;;;;;;;2.28;1.38;;;;;;;;;;5053276;28;20255;-79
2023/05/18 10:36:07;;;;;;;2.35;1.70;;;;;;;;;;5052905;28;20752;-80
2023/05/18 10:38:35;;;;;;;2.42;1.67;;;;;;;;;;5053192;28;20230;-80
2023/05/18 10:41:02;;;;;;;3.92;1.70;;;;;;;;;;5053510;28;20678;-79
2023/05/18 10:43:30;;;;;;;3.08;1.75;;;;;;;;;;5052819;28;20201;-80
2023/05/18 10:46:00;;;;;;;3.83;2.58;;;;;;;;;;5053187;28;20297;-80
2023/05/18 10:48:30;;;;;;;3.97;1.80;;;;;;;;;;5053292;28;20224;-80
2023/05/18 10:50:58;;;;;;;1.95;1.27;;;;;;;;;;5052713;28;20206;-80
2023/05/18 10:53:28;;;;;;;1.75;1.45;;;;;;;;;;5053245;28;20642;-80
2023/05/18 10:55:55;;;;;;;3.17;1.60;;;;;;;;;;5053822;28;20292;-79
2023/05/18 10:58:26;;;;;;;4.30;2.08;;;;;;;;;;5051979;28;20229;-78
2023/05/18 11:01:00;;;;;;;3.15;1.95;;;;;;;;;;5053075;28;20205;-79
2023/05/18 11:03:28;;;;;;;4.22;1.77;;;;;;;;;;5056068;28;20201;-79
2023/05/18 11:06:07;;;;;;;3.92;1.92;;;;;;;;;;5056868;28;20716;-79
2023/05/18 11:08:35;;;;;;;3.50;2.20;;;;;;;;;;5056827;28;20233;-80
2023/05/18 11:11:06;;;;;;;2.17;1.70;;;;;;;;;;5056669;28;20666;-80
2023/05/18 11:13:37;;;;;;;2.47;1.40;;;;;;;;;;5056559;28;20209;-80
2023/05/18 11:16:08;;;;;;;3.70;1.50;;;;;;;;;;5056501;28;20737;-80
2023/05/18 11:18:43;;;;;;;1.50;1.40;;;;;;;;;;5056217;28;20229;-80
2023/05/18 11:21:55;;;;;;;3.40;1.60;;;;;;;;;;5056736;28;20216;-80
2023/05/18 11:24:29;;;;;;;2.55;1.33;;;;;;;;;;5040646;28;20284;-80
2023/05/18 11:27:02;;;;;;;2.40;1.10;;;;;;;;;;5057021;28;20205;-80
2023/05/18 11:29:35;;;;;;;1.63;1.30;;;;;;;;;;5056057;28;20201;-78
2023/05/18 11:32:05;;;;;;;3.50;1.55;;;;;;;;;;5055834;28;20210;-79
2023/05/18 11:34:48;;;;;;;1.83;1.60;;;;;;;;;;5055582;28;20198;-80
2023/05/18 11:37:16;;;;;;;1.75;1.45;;;;;;;;;;5056186;28;20226;-78
2023/05/18 11:39:54;;;;;;;3.17;2.05;;;;;;;;;;5053003;28;20223;-81
2023/05/18 11:42:22;;;;;;;2.85;1.50;;;;;;;;;;5039953;28;20578;-80
2023/05/18 11:44:54;;;;;;;3.42;2.45;;;;;;;;;;5036370;28;20674;-79
2023/05/18 11:47:29;;;;;;;1.30;1.20;;;;;;;;;;5036223;28;20280;-80
2023/05/18 11:49:59;;;;;;;2.20;1.63;;;;;;;;;;5044168;28;20257;-80
2023/05/18 11:52:26;;;;;;;2.80;1.70;;;;;;;;;;5056913;28;20658;-80
2023/05/18 11:54:55;;;;;;;4.55;2.08;;;;;;;;;;5056538;28;20240;-78
2023/05/18 11:57:26;;;;;;;2.95;1.33;;;;;;;;;;5055901;28;20332;-79
2023/05/18 11:59:56;;;;;;;3.45;1.55;;;;;;;;;;5055823;28;20605;-79
2023/05/18 12:02:27;;;;;;;2.42;1.30;;;;;;;;;;5055991;28;20240;-79
2023/05/18 12:04:58;;;;;;;3.80;1.80;;;;;;;;;;5055680;28;20205;-78
2023/05/18 12:07:28;;;;;;;3.60;2.22;;;;;;;;;;5055298;28;20217;-79
2023/05/18 12:09:59;;;;;;;2.78;2.03;;;;;;;;;;5055470;28;20210;-79
2023/05/18 12:12:27;;;;;;;11.27;9.77;;;;;;;;;;5055075;28;20247;-77
2023/05/18 12:14:58;;;;;;;5.75;5.18;;;;;;;;;;5053747;28;20198;-78
2023/05/18 12:17:39;;;;;;;5.30;2.80;;;;;;;;;;5055345;28;20225;-79
2023/05/18 12:20:10;;;;;;;3.72;2.55;;;;;;;;;;5055046;28;20222;-78
2023/05/18 12:22:38;;;;;;;5.15;2.35;;;;;;;;;;5057796;28;20293;-80
2023/05/18 12:25:08;;;;;;;2.72;1.75;;;;;;;;;;5066732;28;20201;-78
2023/05/18 12:27:39;;;;;;;2.53;1.55;;;;;;;;;;5068648;28;20293;-77
2023/05/18 12:30:10;;;;;;;2.67;1.60;;;;;;;;;;5069734;28;20198;-77
2023/05/18 12:32:39;;;;;;;1.30;1.20;;;;;;;;;;5062466;28;20228;-77
2023/05/18 12:35:08;;;;;;;2.00;1.55;;;;;;;;;;5061940;28;20213;-77
2023/05/18 12:37:43;;;;;;;2.42;1.80;;;;;;;;;;5059542;28;20732;-78
2023/05/18 12:40:13;;;;;;;3.55;1.48;;;;;;;;;;5056689;28;20225;-79
2023/05/18 12:42:41;;;;;;;1.70;1.38;;;;;;;;;;5057240;28;20209;-80
2023/05/18 12:45:11;;;;;;;3.13;1.80;;;;;;;;;;5053917;28;20204;-78
2023/05/18 12:47:42;;;;;;;7.78;6.45;;;;;;;;;;5055548;28;20221;-78
2023/05/18 12:50:11;;;;;;;4.15;3.20;;;;;;;;;;5055202;28;20210;-79
2023/05/18 12:52:40;;;;;;;3.78;2.95;;;;;;;;;;5055177;28;20208;-78
2023/05/18 12:55:09;;;;;;;2.60;2.25;;;;;;;;;;5054118;28;20673;-78
2023/05/18 12:57:40;;;;;;;4.38;3.20;;;;;;;;;;5054551;28;20312;-79
2023/05/18 13:00:11;;;;;;;3.45;2.80;;;;;;;;;;5054021;28;20218;-77
2023/05/18 13:02:40;;;;;;;4.35;2.83;;;;;;;;;;5054346;28;20694;-78
2023/05/18 13:05:09;;;;;;;2.28;2.00;;;;;;;;;;5054243;28;20292;-78
2023/05/18 13:07:41;;;;;;;1.50;1.40;;;;;;;;;;5054303;28;20217;-78
2023/05/18 13:10:12;;;;;;;2.30;1.50;;;;;;;;;;5054425;28;20197;-79
2023/05/18 13:12:41;;;;;;;3.17;1.45;;;;;;;;;;5054213;28;20583;-78
2023/05/18 13:15:11;;;;;;;3.03;1.52;;;;;;;;;;5054295;28;20220;-78
2023/05/18 13:17:47;;;;;;;2.47;1.83;;;;;;;;;;5050883;28;20222;-78
2023/05/18 13:20:16;;;;;;;2.00;1.13;;;;;;;;;;5054666;28;20236;-78
2023/05/18 13:22:44;;;;;;;2.58;1.58;;;;;;;;;;5054273;28;20201;-79
2023/05/18 13:25:11;;;;;;;3.45;1.67;;;;;;;;;;5054651;28;20270;-79
2023/05/18 13:27:39;;;;;;;2.47;2.13;;;;;;;;;;5053764;28;20232;-78
2023/05/18 13:30:09;;;;;;;2.63;1.65;;;;;;;;;;5053328;28;20194;-78
2023/05/18 13:32:36;;;;;;;3.53;1.83;;;;;;;;;;5053656;28;20208;-78
2023/05/18 13:35:06;;;;;;;3.47;1.60;;;;;;;;;;5053787;28;20208;-78
2023/05/18 13:37:34;;;;;;;1.65;1.55;;;;;;;;;;5052967;28;20220;-78
2023/05/18 13:40:01;;;;;;;1.20;1.08;;;;;;;;;;5053231;28;20235;-79
2023/05/18 13:42:29;;;;;;;1.25;1.20;;;;;;;;;;5053890;28;20202;-78
2023/05/18 13:44:56;;;;;;;1.10;1.00;;;;;;;;;;5053267;28;20201;-77
2023/05/18 13:47:23;;;;;;;1.45;1.10;;;;;;;;;;5052572;28;20312;-79
2023/05/18 13:49:51;;;;;;;1.67;1.20;;;;;;;;;;5053574;28;20194;-79
2023/05/18 13:52:20;;;;;;;1.67;0.90;;;;;;;;;;5053802;28;20194;-78
2023/05/18 13:54:47;;;;;;;3.10;1.67;;;;;;;;;;5053209;28;20293;-77
2023/05/18 13:59:43;;;;;;;2.47;1.42;;;;;;;;;;5053525;28;20209;-82
2023/05/18 14:02:11;;;;;;;2.58;1.42;;;;;;;;;;5054304;28;20209;-81
2023/05/18 14:04:38;;;;;;;1.73;1.55;;;;;;;;;;5054523;28;20705;-82
2023/05/18 14:07:08;;;;;;;2.00;1.00;;;;;;;;;;5054288;28;20280;-82
2023/05/18 14:09:37;;;;;;;2.85;1.52;;;;;;;;;;5054048;28;20658;-82
2023/05/18 14:12:05;;;;;;;4.50;1.40;;;;;;;;;;5053335;28;20229;-80
2023/05/18 14:14:32;;;;;;;3.60;1.67;;;;;;;;;;5053901;28;20290;-81
2023/05/18 14:17:00;;;;;;;1.75;1.40;;;;;;;;;;5053799;28;20245;-83
2023/05/18 14:19:27;;;;;;;1.63;1.17;;;;;;;;;;5053520;28;20201;-82
2023/05/18 14:21:55;;;;;;;2.00;1.27;;;;;;;;;;5052976;28;20316;-83
2023/05/18 14:24:22;;;;;;;2.53;1.20;;;;;;;;;;5053996;28;20208;-83
2023/05/18 14:26:52;;;;;;;2.25;1.15;;;;;;;;;;5053563;28;20197;-83
2023/05/18 14:29:20;;;;;;;4.65;1.27;;;;;;;;;;5053557;28;20666;-81
2023/05/18 14:31:47;;;;;;;1.55;1.20;;;;;;;;;;5053980;28;20194;-81
2023/05/18 14:34:15;;;;;;;2.17;1.70;;;;;;;;;;5053404;28;20297;-81
2023/05/18 14:36:42;;;;;;;5.05;1.77;;;;;;;;;;5052047;28;20208;-83
2023/05/18 14:39:09;;;;;;;1.50;1.17;;;;;;;;;;5052904;28;20308;-80
2023/05/18 14:41:37;;;;;;;3.58;1.20;;;;;;;;;;5053190;28;20271;-82
2023/05/18 14:44:07;;;;;;;1.10;1.00;;;;;;;;;;5053481;28;20205;-82
2023/05/18 14:46:35;;;;;;;2.28;1.00;;;;;;;;;;5054298;28;20189;-79
2023/05/18 14:49:02;;;;;;;5.93;5.35;;;;;;;;;;5053043;28;20312;-80
2023/05/18 14:51:30;;;;;;;4.25;2.75;;;;;;;;;;5053313;28;20292;-80
2023/05/18 14:53:57;;;;;;;3.75;2.90;;;;;;;;;;5052936;28;20229;-80
2023/05/18 14:56:25;;;;;;;1.67;1.55;;;;;;;;;;5052893;28;20288;-80